sensor_id;sensor_type;location;lat;lon;timestamp;P1;durP1;ratioP1;P2;durP2;ratioP2
2388;SDS011;1205;47.984;7.668;2023-06-01T00:02:00;6.43;;;2.97;;
2388;SDS011;1205;47.984;7.668;2023-06-01T00:04:25;10.43;;;3.00;;
2388;SDS011;1205;47.984;7.668;2023-06-01T00:06:51;4.80;;;2.93;;
2388;SDS011;1205;47.984;7.668;2023-06-01T00:09:16;5.63;;;2.97;;
2388;SDS011;1205;47.984;7.668;2023-06-01T00:11:42;7.33;;;2.93;;
2388;SDS011;1205;47.984;7.668;2023-06-01T00:14:08;4.73;;;3.20;;
2388;SDS011;1205;47.984;7.668;2023-06-01T00:16:34;7.73;;;3.00;;
2388;SDS011;1205;47.984;7.668;2023-06-01T00:19:01;4.67;;;2.40;;
2388;SDS011;1205;47.984;7.668;2023-06-01T00:21:28;6.50;;;3.23;;
2388;SDS011;1205;47.984;7.668;2023-06-01T00:23:56;4.47;;;2.63;;
2388;SDS011;1205;47.984;7.668;2023-06-01T00:26:22;3.17;;;2.80;;
2388;SDS011;1205;47.984;7.668;2023-06-01T00:28:47;6.60;;;2.77;;
2388;SDS011;1205;47.984;7.668;2023-06-01T00:31:13;5.40;;;2.57;;
2388;SDS011;1205;47.984;7.668;2023-06-01T00:33:39;4.47;;;2.60;;
2388;SDS011;1205;47.984;7.668;2023-06-01T00:36:04;3.70;;;2.47;;
2388;SDS011;1205;47.984;7.668;2023-06-01T00:38:30;6.47;;;2.93;;
2388;SDS011;1205;47.984;7.668;2023-06-01T00:40:56;6.60;;;2.90;;
2388;SDS011;1205;47.984;7.668;2023-06-01T00:43:21;26.80;;;3.70;;
2388;SDS011;1205;47.984;7.668;2023-06-01T00:45:47;6.53;;;2.83;;
2388;SDS011;1205;47.984;7.668;2023-06-01T00:48:12;4.10;;;3.20;;
2388;SDS011;1205;47.984;7.668;2023-06-01T00:50:40;3.40;;;2.60;;
2388;SDS011;1205;47.984;7.668;2023-06-01T00:53:06;3.63;;;2.67;;
2388;SDS011;1205;47.984;7.668;2023-06-01T00:55:35;9.13;;;3.43;;
2388;SDS011;1205;47.984;7.668;2023-06-01T00:58:01;6.73;;;3.20;;
2388;SDS011;1205;47.984;7.668;2023-06-01T01:00:27;7.13;;;3.50;;
2388;SDS011;1205;47.984;7.668;2023-06-01T01:02:54;11.97;;;3.20;;
2388;SDS011;1205;47.984;7.668;2023-06-01T01:05:24;8.77;;;3.00;;
2388;SDS011;1205;47.984;7.668;2023-06-01T01:13:39;7.80;;;3.20;;
2388;SDS011;1205;47.984;7.668;2023-06-01T01:16:28;8.80;;;3.20;;
2388;SDS011;1205;47.984;7.668;2023-06-01T01:22:06;10.30;;;3.00;;
2388;SDS011;1205;47.984;7.668;2023-06-01T01:25:06;6.00;;;3.50;;
2388;SDS011;1205;47.984;7.668;2023-06-01T01:30:31;4.07;;;2.70;;
2388;SDS011;1205;47.984;7.668;2023-06-01T01:33:03;4.70;;;2.83;;
2388;SDS011;1205;47.984;7.668;2023-06-01T01:35:29;2.33;;;2.23;;
2388;SDS011;1205;47.984;7.668;2023-06-01T01:37:55;3.90;;;3.30;;
2388;SDS011;1205;47.984;7.668;2023-06-01T01:40:21;7.00;;;3.20;;
2388;SDS011;1205;47.984;7.668;2023-06-01T01:42:47;3.73;;;2.70;;
2388;SDS011;1205;47.984;7.668;2023-06-01T01:45:15;17.83;;;2.93;;
2388;SDS011;1205;47.984;7.668;2023-06-01T01:50:29;7.47;;;3.27;;
2388;SDS011;1205;47.984;7.668;2023-06-01T01:53:16;5.20;;;2.90;;
2388;SDS011;1205;47.984;7.668;2023-06-01T01:55:44;4.80;;;3.23;;
2388;SDS011;1205;47.984;7.668;2023-06-01T01:58:13;6.30;;;3.10;;
2388;SDS011;1205;47.984;7.668;2023-06-01T02:00:41;5.90;;;3.53;;
2388;SDS011;1205;47.984;7.668;2023-06-01T02:03:17;7.40;;;2.67;;
2388;SDS011;1205;47.984;7.668;2023-06-01T02:05:43;3.23;;;2.90;;
2388;SDS011;1205;47.984;7.668;2023-06-01T02:08:09;11.40;;;3.37;;
2388;SDS011;1205;47.984;7.668;2023-06-01T02:10:35;3.73;;;2.80;;
2388;SDS011;1205;47.984;7.668;2023-06-01T02:13:01;4.30;;;2.73;;
2388;SDS011;1205;47.984;7.668;2023-06-01T02:15:26;4.57;;;3.30;;
2388;SDS011;1205;47.984;7.668;2023-06-01T02:17:52;4.83;;;3.07;;
2388;SDS011;1205;47.984;7.668;2023-06-01T02:20:18;17.30;;;3.50;;
2388;SDS011;1205;47.984;7.668;2023-06-01T02:22:44;10.00;;;3.70;;
2388;SDS011;1205;47.984;7.668;2023-06-01T02:25:10;4.53;;;3.73;;
2388;SDS011;1205;47.984;7.668;2023-06-01T02:27:35;5.63;;;3.27;;
2388;SDS011;1205;47.984;7.668;2023-06-01T02:30:01;4.57;;;3.03;;
2388;SDS011;1205;47.984;7.668;2023-06-01T02:32:27;6.13;;;3.40;;
2388;SDS011;1205;47.984;7.668;2023-06-01T02:34:55;5.70;;;3.03;;
2388;SDS011;1205;47.984;7.668;2023-06-01T02:37:22;9.53;;;3.30;;
2388;SDS011;1205;47.984;7.668;2023-06-01T02:39:47;4.33;;;3.10;;
2388;SDS011;1205;47.984;7.668;2023-06-01T02:42:13;4.00;;;3.30;;
2388;SDS011;1205;47.984;7.668;2023-06-01T02:44:38;3.70;;;3.13;;
2388;SDS011;1205;47.984;7.668;2023-06-01T02:47:04;6.97;;;3.83;;
2388;SDS011;1205;47.984;7.668;2023-06-01T02:49:30;4.20;;;3.20;;
2388;SDS011;1205;47.984;7.668;2023-06-01T02:51:56;5.97;;;3.30;;
2388;SDS011;1205;47.984;7.668;2023-06-01T02:54:21;8.83;;;3.10;;
2388;SDS011;1205;47.984;7.668;2023-06-01T02:56:47;7.00;;;3.33;;
2388;SDS011;1205;47.984;7.668;2023-06-01T02:59:12;7.93;;;3.50;;
2388;SDS011;1205;47.984;7.668;2023-06-01T03:01:38;5.33;;;3.27;;
2388;SDS011;1205;47.984;7.668;2023-06-01T03:04:04;5.40;;;3.40;;
2388;SDS011;1205;47.984;7.668;2023-06-01T03:06:30;9.70;;;3.60;;
2388;SDS011;1205;47.984;7.668;2023-06-01T03:09:01;4.13;;;3.07;;
2388;SDS011;1205;47.984;7.668;2023-06-01T03:11:27;7.50;;;3.70;;
2388;SDS011;1205;47.984;7.668;2023-06-01T03:13:52;4.93;;;3.43;;
2388;SDS011;1205;47.984;7.668;2023-06-01T03:16:18;4.73;;;3.33;;
2388;SDS011;1205;47.984;7.668;2023-06-01T03:18:43;5.53;;;4.10;;
2388;SDS011;1205;47.984;7.668;2023-06-01T03:21:09;8.23;;;3.67;;
2388;SDS011;1205;47.984;7.668;2023-06-01T03:23:35;6.67;;;3.40;;
2388;SDS011;1205;47.984;7.668;2023-06-01T03:26:00;4.93;;;3.17;;
2388;SDS011;1205;47.984;7.668;2023-06-01T03:28:29;11.73;;;3.80;;
2388;SDS011;1205;47.984;7.668;2023-06-01T03:30:54;7.50;;;3.50;;
2388;SDS011;1205;47.984;7.668;2023-06-01T03:33:21;9.23;;;3.43;;
2388;SDS011;1205;47.984;7.668;2023-06-01T03:35:46;5.43;;;3.80;;
2388;SDS011;1205;47.984;7.668;2023-06-01T03:38:14;13.50;;;3.43;;
2388;SDS011;1205;47.984;7.668;2023-06-01T03:40:40;10.87;;;3.20;;
2388;SDS011;1205;47.984;7.668;2023-06-01T03:43:06;13.17;;;4.20;;
2388;SDS011;1205;47.984;7.668;2023-06-01T03:45:31;5.50;;;3.27;;
2388;SDS011;1205;47.984;7.668;2023-06-01T03:47:57;8.70;;;3.23;;
2388;SDS011;1205;47.984;7.668;2023-06-01T03:50:22;4.67;;;3.40;;
2388;SDS011;1205;47.984;7.668;2023-06-01T03:52:48;5.03;;;3.60;;
2388;SDS011;1205;47.984;7.668;2023-06-01T03:55:14;4.63;;;3.13;;
2388;SDS011;1205;47.984;7.668;2023-06-01T03:57:40;7.80;;;4.20;;
2388;SDS011;1205;47.984;7.668;2023-06-01T04:00:06;7.43;;;3.90;;
2388;SDS011;1205;47.984;7.668;2023-06-01T04:02:51;10.83;;;3.87;;
2388;SDS011;1205;47.984;7.668;2023-06-01T04:05:20;5.83;;;3.80;;
2388;SDS011;1205;47.984;7.668;2023-06-01T04:07:46;9.23;;;3.97;;
2388;SDS011;1205;47.984;7.668;2023-06-01T04:10:12;8.50;;;4.10;;
2388;SDS011;1205;47.984;7.668;2023-06-01T04:12:39;7.67;;;4.00;;
2388;SDS011;1205;47.984;7.668;2023-06-01T04:15:06;6.10;;;3.37;;
2388;SDS011;1205;47.984;7.668;2023-06-01T04:17:35;7.63;;;3.53;;
2388;SDS011;1205;47.984;7.668;2023-06-01T04:20:01;5.93;;;3.43;;
2388;SDS011;1205;47.984;7.668;2023-06-01T04:22:31;8.60;;;3.63;;
2388;SDS011;1205;47.984;7.668;2023-06-01T04:24:57;5.20;;;3.50;;
2388;SDS011;1205;47.984;7.668;2023-06-01T04:27:22;9.10;;;4.10;;
2388;SDS011;1205;47.984;7.668;2023-06-01T04:29:49;9.17;;;3.87;;
2388;SDS011;1205;47.984;7.668;2023-06-01T04:32:15;5.50;;;3.83;;
2388;SDS011;1205;47.984;7.668;2023-06-01T04:34:46;8.10;;;3.93;;
2388;SDS011;1205;47.984;7.668;2023-06-01T04:37:14;9.60;;;4.27;;
2388;SDS011;1205;47.984;7.668;2023-06-01T04:39:49;13.77;;;3.60;;
2388;SDS011;1205;47.984;7.668;2023-06-01T04:42:16;8.67;;;4.17;;
2388;SDS011;1205;47.984;7.668;2023-06-01T04:44:43;17.07;;;4.07;;
2388;SDS011;1205;47.984;7.668;2023-06-01T04:47:11;20.33;;;4.73;;
2388;SDS011;1205;47.984;7.668;2023-06-01T04:49:39;6.57;;;4.30;;
2388;SDS011;1205;47.984;7.668;2023-06-01T04:52:07;4.20;;;3.70;;
2388;SDS011;1205;47.984;7.668;2023-06-01T04:54:34;8.17;;;4.27;;
2388;SDS011;1205;47.984;7.668;2023-06-01T04:57:03;3.83;;;3.53;;
2388;SDS011;1205;47.984;7.668;2023-06-01T04:59:31;9.30;;;4.30;;
2388;SDS011;1205;47.984;7.668;2023-06-01T05:01:57;7.53;;;4.00;;
2388;SDS011;1205;47.984;7.668;2023-06-01T05:04:23;7.50;;;3.60;;
2388;SDS011;1205;47.984;7.668;2023-06-01T05:06:48;5.70;;;3.40;;
2388;SDS011;1205;47.984;7.668;2023-06-01T05:09:14;5.70;;;3.40;;
2388;SDS011;1205;47.984;7.668;2023-06-01T05:11:39;6.13;;;3.87;;
2388;SDS011;1205;47.984;7.668;2023-06-01T05:14:05;6.43;;;3.47;;
2388;SDS011;1205;47.984;7.668;2023-06-01T05:16:31;6.27;;;4.10;;
2388;SDS011;1205;47.984;7.668;2023-06-01T05:18:57;15.10;;;4.60;;
2388;SDS011;1205;47.984;7.668;2023-06-01T05:21:22;19.10;;;4.37;;
2388;SDS011;1205;47.984;7.668;2023-06-01T05:23:48;15.93;;;3.97;;
2388;SDS011;1205;47.984;7.668;2023-06-01T05:26:13;8.90;;;4.00;;
2388;SDS011;1205;47.984;7.668;2023-06-01T05:28:39;6.80;;;4.93;;
2388;SDS011;1205;47.984;7.668;2023-06-01T05:31:04;13.93;;;4.63;;
2388;SDS011;1205;47.984;7.668;2023-06-01T05:33:30;10.87;;;5.20;;
2388;SDS011;1205;47.984;7.668;2023-06-01T05:35:56;11.30;;;4.67;;
2388;SDS011;1205;47.984;7.668;2023-06-01T05:38:21;12.63;;;4.70;;
2388;SDS011;1205;47.984;7.668;2023-06-01T05:40:47;8.83;;;4.20;;
2388;SDS011;1205;47.984;7.668;2023-06-01T05:43:13;6.47;;;4.13;;
2388;SDS011;1205;47.984;7.668;2023-06-01T05:45:40;10.40;;;4.00;;
2388;SDS011;1205;47.984;7.668;2023-06-01T05:48:06;7.37;;;3.90;;
2388;SDS011;1205;47.984;7.668;2023-06-01T05:50:31;15.77;;;4.43;;
2388;SDS011;1205;47.984;7.668;2023-06-01T05:52:57;8.47;;;4.80;;
2388;SDS011;1205;47.984;7.668;2023-06-01T05:55:23;13.53;;;4.80;;
2388;SDS011;1205;47.984;7.668;2023-06-01T05:57:48;8.33;;;4.20;;
2388;SDS011;1205;47.984;7.668;2023-06-01T06:00:14;11.97;;;4.40;;
2388;SDS011;1205;47.984;7.668;2023-06-01T06:02:41;5.00;;;3.97;;
2388;SDS011;1205;47.984;7.668;2023-06-01T06:05:07;6.10;;;3.87;;
2388;SDS011;1205;47.984;7.668;2023-06-01T06:07:34;12.00;;;3.80;;
2388;SDS011;1205;47.984;7.668;2023-06-01T06:10:00;11.63;;;3.77;;
2388;SDS011;1205;47.984;7.668;2023-06-01T06:12:26;9.23;;;3.90;;
2388;SDS011;1205;47.984;7.668;2023-06-01T06:14:52;8.80;;;3.60;;
2388;SDS011;1205;47.984;7.668;2023-06-01T06:17:18;4.33;;;3.30;;
2388;SDS011;1205;47.984;7.668;2023-06-01T06:19:44;10.10;;;3.80;;
2388;SDS011;1205;47.984;7.668;2023-06-01T06:22:10;8.83;;;3.63;;
2388;SDS011;1205;47.984;7.668;2023-06-01T06:24:36;11.30;;;3.50;;
2388;SDS011;1205;47.984;7.668;2023-06-01T06:27:02;13.33;;;4.70;;
2388;SDS011;1205;47.984;7.668;2023-06-01T06:29:28;10.20;;;3.97;;
2388;SDS011;1205;47.984;7.668;2023-06-01T06:31:54;9.20;;;3.50;;
2388;SDS011;1205;47.984;7.668;2023-06-01T06:34:20;13.43;;;3.97;;
2388;SDS011;1205;47.984;7.668;2023-06-01T06:36:45;14.23;;;4.10;;
2388;SDS011;1205;47.984;7.668;2023-06-01T06:39:11;16.37;;;3.90;;
2388;SDS011;1205;47.984;7.668;2023-06-01T06:41:37;8.60;;;4.00;;
2388;SDS011;1205;47.984;7.668;2023-06-01T06:44:05;7.30;;;3.80;;
2388;SDS011;1205;47.984;7.668;2023-06-01T06:46:31;8.87;;;3.77;;
2388;SDS011;1205;47.984;7.668;2023-06-01T06:48:56;13.70;;;4.47;;
2388;SDS011;1205;47.984;7.668;2023-06-01T06:51:22;11.43;;;3.87;;
2388;SDS011;1205;47.984;7.668;2023-06-01T06:53:47;14.83;;;3.80;;
2388;SDS011;1205;47.984;7.668;2023-06-01T06:56:13;10.80;;;3.80;;
2388;SDS011;1205;47.984;7.668;2023-06-01T06:58:38;13.87;;;3.70;;
2388;SDS011;1205;47.984;7.668;2023-06-01T07:01:04;9.30;;;3.87;;
2388;SDS011;1205;47.984;7.668;2023-06-01T07:03:31;6.50;;;3.73;;
2388;SDS011;1205;47.984;7.668;2023-06-01T07:05:57;5.43;;;3.57;;
2388;SDS011;1205;47.984;7.668;2023-06-01T07:08:23;6.40;;;3.50;;
2388;SDS011;1205;47.984;7.668;2023-06-01T07:10:48;5.00;;;3.43;;
2388;SDS011;1205;47.984;7.668;2023-06-01T07:13:14;9.40;;;3.77;;
2388;SDS011;1205;47.984;7.668;2023-06-01T07:15:39;6.30;;;3.87;;
2388;SDS011;1205;47.984;7.668;2023-06-01T07:18:05;6.97;;;3.50;;
2388;SDS011;1205;47.984;7.668;2023-06-01T07:20:31;14.67;;;4.00;;
2388;SDS011;1205;47.984;7.668;2023-06-01T07:22:57;14.20;;;3.60;;
2388;SDS011;1205;47.984;7.668;2023-06-01T07:25:23;7.60;;;3.33;;
2388;SDS011;1205;47.984;7.668;2023-06-01T07:27:48;8.77;;;3.60;;
2388;SDS011;1205;47.984;7.668;2023-06-01T07:30:14;12.13;;;4.40;;
2388;SDS011;1205;47.984;7.668;2023-06-01T07:32:41;8.30;;;3.77;;
2388;SDS011;1205;47.984;7.668;2023-06-01T07:35:07;12.03;;;4.20;;
2388;SDS011;1205;47.984;7.668;2023-06-01T07:37:33;12.23;;;3.97;;
2388;SDS011;1205;47.984;7.668;2023-06-01T07:39:59;13.20;;;3.40;;
2388;SDS011;1205;47.984;7.668;2023-06-01T07:42:25;12.37;;;3.80;;
2388;SDS011;1205;47.984;7.668;2023-06-01T07:44:50;12.30;;;4.00;;
2388;SDS011;1205;47.984;7.668;2023-06-01T07:47:16;7.07;;;4.13;;
2388;SDS011;1205;47.984;7.668;2023-06-01T07:49:42;10.93;;;3.90;;
2388;SDS011;1205;47.984;7.668;2023-06-01T07:52:07;8.70;;;3.97;;
2388;SDS011;1205;47.984;7.668;2023-06-01T07:54:34;11.60;;;3.80;;
2388;SDS011;1205;47.984;7.668;2023-06-01T07:57:01;9.77;;;3.67;;
2388;SDS011;1205;47.984;7.668;2023-06-01T07:59:29;10.90;;;4.50;;
2388;SDS011;1205;47.984;7.668;2023-06-01T08:01:55;13.30;;;4.20;;
2388;SDS011;1205;47.984;7.668;2023-06-01T08:04:21;16.43;;;3.77;;
2388;SDS011;1205;47.984;7.668;2023-06-01T08:06:47;8.17;;;3.97;;
2388;SDS011;1205;47.984;7.668;2023-06-01T08:09:14;10.57;;;4.53;;
2388;SDS011;1205;47.984;7.668;2023-06-01T08:11:39;10.30;;;3.87;;
2388;SDS011;1205;47.984;7.668;2023-06-01T08:14:05;5.77;;;3.93;;
2388;SDS011;1205;47.984;7.668;2023-06-01T08:16:34;7.83;;;3.50;;
2388;SDS011;1205;47.984;7.668;2023-06-01T08:19:00;15.87;;;3.97;;
2388;SDS011;1205;47.984;7.668;2023-06-01T08:21:25;6.57;;;4.30;;
2388;SDS011;1205;47.984;7.668;2023-06-01T08:23:52;10.63;;;4.27;;
2388;SDS011;1205;47.984;7.668;2023-06-01T08:26:20;8.00;;;3.73;;
2388;SDS011;1205;47.984;7.668;2023-06-01T08:28:45;12.00;;;4.00;;
2388;SDS011;1205;47.984;7.668;2023-06-01T08:31:20;8.60;;;3.67;;
2388;SDS011;1205;47.984;7.668;2023-06-01T08:33:47;6.60;;;3.70;;
2388;SDS011;1205;47.984;7.668;2023-06-01T08:36:13;6.40;;;4.10;;
2388;SDS011;1205;47.984;7.668;2023-06-01T08:38:39;13.60;;;4.10;;
2388;SDS011;1205;47.984;7.668;2023-06-01T08:43:53;7.80;;;4.30;;
2388;SDS011;1205;47.984;7.668;2023-06-01T08:46:23;6.23;;;4.23;;
2388;SDS011;1205;47.984;7.668;2023-06-01T08:48:52;10.80;;;4.77;;
2388;SDS011;1205;47.984;7.668;2023-06-01T08:51:20;21.83;;;4.40;;
2388;SDS011;1205;47.984;7.668;2023-06-01T08:53:47;17.97;;;4.23;;
2388;SDS011;1205;47.984;7.668;2023-06-01T08:56:15;13.87;;;4.40;;
2388;SDS011;1205;47.984;7.668;2023-06-01T08:58:41;10.97;;;4.23;;
2388;SDS011;1205;47.984;7.668;2023-06-01T09:01:08;8.67;;;3.90;;
2388;SDS011;1205;47.984;7.668;2023-06-01T09:03:34;14.67;;;4.03;;
2388;SDS011;1205;47.984;7.668;2023-06-01T09:06:00;6.80;;;3.53;;
2388;SDS011;1205;47.984;7.668;2023-06-01T09:08:25;5.87;;;4.57;;
2388;SDS011;1205;47.984;7.668;2023-06-01T09:10:51;8.27;;;4.10;;
2388;SDS011;1205;47.984;7.668;2023-06-01T09:13:33;5.93;;;4.30;;
2388;SDS011;1205;47.984;7.668;2023-06-01T09:15:59;9.67;;;4.60;;
2388;SDS011;1205;47.984;7.668;2023-06-01T09:18:25;12.77;;;4.50;;
2388;SDS011;1205;47.984;7.668;2023-06-01T09:20:51;6.77;;;4.70;;
2388;SDS011;1205;47.984;7.668;2023-06-01T09:23:25;13.97;;;4.40;;
2388;SDS011;1205;47.984;7.668;2023-06-01T09:26:12;16.73;;;5.00;;
2388;SDS011;1205;47.984;7.668;2023-06-01T09:28:58;7.93;;;4.50;;
2388;SDS011;1205;47.984;7.668;2023-06-01T09:34:20;10.00;;;3.50;;
2388;SDS011;1205;47.984;7.668;2023-06-01T09:36:46;11.60;;;4.13;;
2388;SDS011;1205;47.984;7.668;2023-06-01T09:39:13;14.93;;;4.33;;
2388;SDS011;1205;47.984;7.668;2023-06-01T09:41:48;9.33;;;4.47;;
2388;SDS011;1205;47.984;7.668;2023-06-01T09:44:37;7.23;;;4.43;;
2388;SDS011;1205;47.984;7.668;2023-06-01T09:47:07;7.43;;;4.07;;
2388;SDS011;1205;47.984;7.668;2023-06-01T09:49:36;6.93;;;4.63;;
2388;SDS011;1205;47.984;7.668;2023-06-01T09:57:00;14.07;;;4.73;;
2388;SDS011;1205;47.984;7.668;2023-06-01T09:59:28;4.63;;;4.27;;
2388;SDS011;1205;47.984;7.668;2023-06-01T10:01:55;5.70;;;4.20;;
2388;SDS011;1205;47.984;7.668;2023-06-01T10:04:23;12.50;;;4.10;;
2388;SDS011;1205;47.984;7.668;2023-06-01T10:06:50;6.50;;;4.37;;
2388;SDS011;1205;47.984;7.668;2023-06-01T10:09:17;9.33;;;5.10;;
2388;SDS011;1205;47.984;7.668;2023-06-01T10:11:45;12.43;;;4.90;;
2388;SDS011;1205;47.984;7.668;2023-06-01T10:14:16;6.37;;;4.40;;
2388;SDS011;1205;47.984;7.668;2023-06-01T10:16:42;9.17;;;4.90;;
2388;SDS011;1205;47.984;7.668;2023-06-01T10:19:08;14.67;;;5.00;;
2388;SDS011;1205;47.984;7.668;2023-06-01T10:21:35;11.53;;;4.00;;
2388;SDS011;1205;47.984;7.668;2023-06-01T10:24:02;10.73;;;4.53;;
2388;SDS011;1205;47.984;7.668;2023-06-01T10:26:28;9.30;;;5.03;;
2388;SDS011;1205;47.984;7.668;2023-06-01T10:28:58;10.30;;;4.50;;
2388;SDS011;1205;47.984;7.668;2023-06-01T10:34:01;16.33;;;4.07;;
2388;SDS011;1205;47.984;7.668;2023-06-01T10:39:21;9.90;;;4.70;;
2388;SDS011;1205;47.984;7.668;2023-06-01T10:41:51;12.23;;;4.73;;
2388;SDS011;1205;47.984;7.668;2023-06-01T10:47:05;15.00;;;5.03;;
2388;SDS011;1205;47.984;7.668;2023-06-01T10:52:45;12.13;;;5.00;;
2388;SDS011;1205;47.984;7.668;2023-06-01T10:57:47;8.17;;;5.07;;
2388;SDS011;1205;47.984;7.668;2023-06-01T11:02:46;5.27;;;4.40;;
2388;SDS011;1205;47.984;7.668;2023-06-01T11:13:16;13.07;;;5.00;;
2388;SDS011;1205;47.984;7.668;2023-06-01T11:18:52;8.40;;;4.70;;
2388;SDS011;1205;47.984;7.668;2023-06-01T11:21:31;6.47;;;4.20;;
2388;SDS011;1205;47.984;7.668;2023-06-01T11:24:05;8.07;;;4.97;;
2388;SDS011;1205;47.984;7.668;2023-06-01T11:26:41;7.23;;;4.70;;
2388;SDS011;1205;47.984;7.668;2023-06-01T11:29:08;5.40;;;4.87;;
2388;SDS011;1205;47.984;7.668;2023-06-01T11:31:45;8.47;;;4.97;;
2388;SDS011;1205;47.984;7.668;2023-06-01T11:34:12;6.33;;;4.60;;
2388;SDS011;1205;47.984;7.668;2023-06-01T11:36:41;5.40;;;4.90;;
2388;SDS011;1205;47.984;7.668;2023-06-01T11:39:15;6.83;;;4.87;;
2388;SDS011;1205;47.984;7.668;2023-06-01T11:41:43;8.93;;;5.90;;
2388;SDS011;1205;47.984;7.668;2023-06-01T11:44:09;5.03;;;4.50;;
2388;SDS011;1205;47.984;7.668;2023-06-01T11:46:35;8.87;;;5.73;;
2388;SDS011;1205;47.984;7.668;2023-06-01T11:49:02;9.43;;;5.17;;
2388;SDS011;1205;47.984;7.668;2023-06-01T11:51:33;7.50;;;5.40;;
2388;SDS011;1205;47.984;7.668;2023-06-01T11:54:02;7.97;;;5.60;;
2388;SDS011;1205;47.984;7.668;2023-06-01T11:56:32;10.23;;;4.97;;
2388;SDS011;1205;47.984;7.668;2023-06-01T11:59:01;9.10;;;5.00;;
2388;SDS011;1205;47.984;7.668;2023-06-01T12:01:44;10.40;;;5.17;;
2388;SDS011;1205;47.984;7.668;2023-06-01T12:04:14;7.23;;;4.90;;
2388;SDS011;1205;47.984;7.668;2023-06-01T12:06:44;9.27;;;4.40;;
2388;SDS011;1205;47.984;7.668;2023-06-01T12:09:11;5.60;;;5.10;;
2388;SDS011;1205;47.984;7.668;2023-06-01T12:11:38;8.73;;;5.30;;
2388;SDS011;1205;47.984;7.668;2023-06-01T12:14:05;9.17;;;5.27;;
2388;SDS011;1205;47.984;7.668;2023-06-01T12:19:30;8.03;;;4.33;;
2388;SDS011;1205;47.984;7.668;2023-06-01T12:21:57;5.60;;;4.90;;
2388;SDS011;1205;47.984;7.668;2023-06-01T12:24:27;6.73;;;4.70;;
2388;SDS011;1205;47.984;7.668;2023-06-01T12:26:58;8.20;;;4.40;;
2388;SDS011;1205;47.984;7.668;2023-06-01T12:29:35;5.50;;;4.83;;
2388;SDS011;1205;47.984;7.668;2023-06-01T12:32:02;8.23;;;5.10;;
2388;SDS011;1205;47.984;7.668;2023-06-01T12:34:28;10.23;;;5.83;;
2388;SDS011;1205;47.984;7.668;2023-06-01T12:36:54;11.17;;;4.67;;
2388;SDS011;1205;47.984;7.668;2023-06-01T12:39:33;8.97;;;5.10;;
2388;SDS011;1205;47.984;7.668;2023-06-01T12:42:02;6.00;;;5.47;;
2388;SDS011;1205;47.984;7.668;2023-06-01T12:44:30;6.17;;;5.57;;
2388;SDS011;1205;47.984;7.668;2023-06-01T12:46:57;11.00;;;5.73;;
2388;SDS011;1205;47.984;7.668;2023-06-01T12:49:25;10.43;;;4.77;;
2388;SDS011;1205;47.984;7.668;2023-06-01T12:51:51;7.27;;;4.80;;
2388;SDS011;1205;47.984;7.668;2023-06-01T12:54:17;5.50;;;4.90;;
2388;SDS011;1205;47.984;7.668;2023-06-01T12:56:43;5.67;;;5.07;;
2388;SDS011;1205;47.984;7.668;2023-06-01T12:59:09;12.13;;;5.13;;
2388;SDS011;1205;47.984;7.668;2023-06-01T13:01:35;6.47;;;5.30;;
2388;SDS011;1205;47.984;7.668;2023-06-01T13:04:01;5.17;;;4.70;;
2388;SDS011;1205;47.984;7.668;2023-06-01T13:06:28;9.93;;;4.93;;
2388;SDS011;1205;47.984;7.668;2023-06-01T13:08:54;10.63;;;5.30;;
2388;SDS011;1205;47.984;7.668;2023-06-01T13:11:20;7.43;;;5.20;;
2388;SDS011;1205;47.984;7.668;2023-06-01T13:13:48;7.67;;;4.80;;
2388;SDS011;1205;47.984;7.668;2023-06-01T13:16:13;5.20;;;4.70;;
2388;SDS011;1205;47.984;7.668;2023-06-01T13:18:40;7.27;;;5.90;;
2388;SDS011;1205;47.984;7.668;2023-06-01T13:21:06;5.50;;;4.97;;
2388;SDS011;1205;47.984;7.668;2023-06-01T13:23:32;6.73;;;5.07;;
2388;SDS011;1205;47.984;7.668;2023-06-01T13:25:58;10.77;;;6.50;;
2388;SDS011;1205;47.984;7.668;2023-06-01T13:28:23;7.90;;;5.40;;
2388;SDS011;1205;47.984;7.668;2023-06-01T13:30:49;12.20;;;5.10;;
2388;SDS011;1205;47.984;7.668;2023-06-01T13:33:15;9.97;;;5.20;;
2388;SDS011;1205;47.984;7.668;2023-06-01T13:35:40;6.53;;;5.53;;
2388;SDS011;1205;47.984;7.668;2023-06-01T13:38:06;6.53;;;4.90;;
2388;SDS011;1205;47.984;7.668;2023-06-01T13:40:32;7.63;;;5.20;;
2388;SDS011;1205;47.984;7.668;2023-06-01T13:42:58;6.93;;;4.53;;
2388;SDS011;1205;47.984;7.668;2023-06-01T13:45:24;11.20;;;5.50;;
2388;SDS011;1205;47.984;7.668;2023-06-01T13:47:50;11.07;;;5.20;;
2388;SDS011;1205;47.984;7.668;2023-06-01T13:50:16;5.17;;;4.67;;
2388;SDS011;1205;47.984;7.668;2023-06-01T13:52:42;6.80;;;5.10;;
2388;SDS011;1205;47.984;7.668;2023-06-01T13:55:08;4.93;;;4.57;;
2388;SDS011;1205;47.984;7.668;2023-06-01T13:57:37;6.77;;;5.90;;
2388;SDS011;1205;47.984;7.668;2023-06-01T14:00:05;7.90;;;4.73;;
2388;SDS011;1205;47.984;7.668;2023-06-01T14:02:33;5.97;;;5.37;;
2388;SDS011;1205;47.984;7.668;2023-06-01T14:04:59;5.57;;;5.17;;
2388;SDS011;1205;47.984;7.668;2023-06-01T14:07:25;6.63;;;5.13;;
2388;SDS011;1205;47.984;7.668;2023-06-01T14:09:54;18.87;;;5.40;;
2388;SDS011;1205;47.984;7.668;2023-06-01T14:12:19;8.87;;;5.03;;
2388;SDS011;1205;47.984;7.668;2023-06-01T14:14:45;6.30;;;5.40;;
2388;SDS011;1205;47.984;7.668;2023-06-01T14:17:10;11.83;;;6.00;;
2388;SDS011;1205;47.984;7.668;2023-06-01T14:19:36;6.50;;;5.73;;
2388;SDS011;1205;47.984;7.668;2023-06-01T14:22:01;7.93;;;5.60;;
2388;SDS011;1205;47.984;7.668;2023-06-01T14:24:27;6.70;;;5.23;;
2388;SDS011;1205;47.984;7.668;2023-06-01T14:26:52;6.83;;;5.50;;
2388;SDS011;1205;47.984;7.668;2023-06-01T14:29:18;6.87;;;5.70;;
2388;SDS011;1205;47.984;7.668;2023-06-01T14:31:45;8.43;;;4.87;;
2388;SDS011;1205;47.984;7.668;2023-06-01T14:34:10;8.00;;;4.90;;
2388;SDS011;1205;47.984;7.668;2023-06-01T14:36:36;6.23;;;4.97;;
2388;SDS011;1205;47.984;7.668;2023-06-01T14:39:02;6.10;;;4.90;;
2388;SDS011;1205;47.984;7.668;2023-06-01T14:41:27;11.50;;;5.40;;
2388;SDS011;1205;47.984;7.668;2023-06-01T14:43:53;6.20;;;4.80;;
2388;SDS011;1205;47.984;7.668;2023-06-01T14:46:18;7.43;;;5.63;;
2388;SDS011;1205;47.984;7.668;2023-06-01T14:48:45;6.50;;;4.97;;
2388;SDS011;1205;47.984;7.668;2023-06-01T14:51:11;6.20;;;5.13;;
2388;SDS011;1205;47.984;7.668;2023-06-01T14:53:37;4.80;;;4.40;;
2388;SDS011;1205;47.984;7.668;2023-06-01T14:56:04;8.37;;;4.80;;
2388;SDS011;1205;47.984;7.668;2023-06-01T14:58:30;6.70;;;5.57;;
2388;SDS011;1205;47.984;7.668;2023-06-01T15:00:56;5.27;;;4.77;;
2388;SDS011;1205;47.984;7.668;2023-06-01T15:03:22;6.20;;;4.90;;
2388;SDS011;1205;47.984;7.668;2023-06-01T15:05:48;7.60;;;4.57;;
2388;SDS011;1205;47.984;7.668;2023-06-01T15:08:14;7.63;;;5.93;;
2388;SDS011;1205;47.984;7.668;2023-06-01T15:10:40;9.60;;;5.47;;
2388;SDS011;1205;47.984;7.668;2023-06-01T15:13:05;13.23;;;4.80;;
2388;SDS011;1205;47.984;7.668;2023-06-01T15:15:31;9.50;;;4.90;;
2388;SDS011;1205;47.984;7.668;2023-06-01T15:17:56;10.07;;;4.83;;
2388;SDS011;1205;47.984;7.668;2023-06-01T15:20:22;5.60;;;4.33;;
2388;SDS011;1205;47.984;7.668;2023-06-01T15:22:47;7.73;;;4.40;;
2388;SDS011;1205;47.984;7.668;2023-06-01T15:25:13;6.53;;;5.47;;
2388;SDS011;1205;47.984;7.668;2023-06-01T15:27:39;5.67;;;4.80;;
2388;SDS011;1205;47.984;7.668;2023-06-01T15:30:04;9.07;;;4.70;;
2388;SDS011;1205;47.984;7.668;2023-06-01T15:32:31;5.33;;;4.83;;
2388;SDS011;1205;47.984;7.668;2023-06-01T15:34:56;7.97;;;5.37;;
2388;SDS011;1205;47.984;7.668;2023-06-01T15:37:22;6.40;;;5.43;;
2388;SDS011;1205;47.984;7.668;2023-06-01T15:39:48;5.43;;;4.93;;
2388;SDS011;1205;47.984;7.668;2023-06-01T15:42:14;11.90;;;5.53;;
2388;SDS011;1205;47.984;7.668;2023-06-01T15:44:40;10.80;;;4.67;;
2388;SDS011;1205;47.984;7.668;2023-06-01T15:47:07;9.17;;;5.40;;
2388;SDS011;1205;47.984;7.668;2023-06-01T15:49:33;7.43;;;5.60;;
2388;SDS011;1205;47.984;7.668;2023-06-01T15:51:59;7.30;;;5.17;;
2388;SDS011;1205;47.984;7.668;2023-06-01T15:54:28;11.47;;;4.53;;
2388;SDS011;1205;47.984;7.668;2023-06-01T15:56:56;16.07;;;11.77;;
2388;SDS011;1205;47.984;7.668;2023-06-01T15:59:21;5.07;;;4.57;;
2388;SDS011;1205;47.984;7.668;2023-06-01T16:01:47;10.33;;;6.30;;
2388;SDS011;1205;47.984;7.668;2023-06-01T16:04:12;6.03;;;4.90;;
2388;SDS011;1205;47.984;7.668;2023-06-01T16:06:38;5.40;;;4.90;;
2388;SDS011;1205;47.984;7.668;2023-06-01T16:09:03;15.33;;;5.20;;